Falcon Heights, Minnesota
Current Conditions -  °F | °C
As of 4:53 PM on Wednesday 26 Nov 2014 (Local Time) from KSTP Reporting Station
Few Clouds Few Clouds  
Wind Chill: 13°   Ceiling: Unl
Heat Index: 22°   Visibility: 10mi
Dew Point: 16°   Wind: 7mph
Humidity: 78%   Direction: 320°NW
Pressure: 30.28"   Gusts: NA
Location:  45.0123°N, 93.1559°W
Report Text: KSTP 262253Z 32006KT 10SM FEW026 M06/M09 A3028 RMK AO2 SLP263 T10561089
Loading
Personal Weather Stations






























Interactive Weather Map New forecast layout! Learn more

10-Day Weather Forecast

Advertisements
Track Severe Weather on mobile